Time;durP1;ratioP1;P1;durP2;ratioP2;P2;SDS_P1;SDS_P2;PMS_P1;PMS_P2;Temp;Humidity;BMP_temperature;BMP_pressure;BME280_temperature;BME280_humidity;BME280_pressure;Samples;Min_cycle;Max_cycle;Signal;HPM_P1;HPM_P2
2021/12/22 00:01:42;;;;;;;29.67;17.27;;;;;;;-6.99;100.00;99443.72;10167776;28;20075;-76
2021/12/22 00:06:43;;;;;;;27.50;16.48;;;;;;;-7.11;100.00;99441.78;10153308;28;20146;-77
2021/12/22 00:11:44;;;;;;;27.27;17.05;;;;;;;-7.16;100.00;99443.09;10163746;28;20535;-79
2021/12/22 00:16:44;;;;;;;29.75;17.38;;;;;;;-7.12;100.00;99443.56;10166321;28;20063;-77
2021/12/22 00:21:51;;;;;;;25.00;16.73;;;;;;;-7.06;100.00;99448.06;10156804;28;20449;-77
2021/12/22 00:26:53;;;;;;;30.70;17.13;;;;;;;-7.17;100.00;99449.31;10181417;28;20056;-76
2021/12/22 00:32:08;;;;;;;31.15;17.10;;;;;;;-7.25;100.00;99445.97;10175690;28;20063;-76
2021/12/22 00:37:09;;;;;;;31.73;17.58;;;;;;;-7.19;100.00;99446.09;10152496;28;20084;-78
2021/12/22 00:42:11;;;;;;;27.25;15.85;;;;;;;-7.14;100.00;99439.50;10150529;28;20130;-76
2021/12/22 00:47:12;;;;;;;27.73;18.07;;;;;;;-7.29;100.00;99432.50;10148599;28;20072;-78
2021/12/22 00:52:13;;;;;;;27.80;16.27;;;;;;;-7.48;100.00;99433.03;10163295;28;20300;-77
2021/12/22 00:57:24;;;;;;;28.23;16.58;;;;;;;-7.45;100.00;99436.09;10181934;28;20154;-78
2021/12/22 01:02:25;;;;;;;29.00;16.05;;;;;;;-7.45;100.00;99432.66;10174369;28;20044;-77
2021/12/22 01:07:25;;;;;;;25.77;15.90;;;;;;;-7.53;100.00;99446.59;10190957;28;20067;-77
2021/12/22 01:12:26;;;;;;;29.67;16.58;;;;;;;-7.42;100.00;99444.53;10162922;28;20047;-76
2021/12/22 01:17:34;;;;;;;27.40;15.82;;;;;;;-7.38;100.00;99441.41;10142084;28;20052;-76
2021/12/22 01:27:43;;;;;;;26.15;16.02;;;;;;;-7.48;100.00;99441.66;10172833;28;20245;-76
2021/12/22 01:32:44;;;;;;;26.70;16.55;;;;;;;-7.60;100.00;99442.25;10153739;28;20060;-76
2021/12/22 01:37:45;;;;;;;25.77;15.48;;;;;;;-7.74;100.00;99446.47;10150699;28;20051;-77
2021/12/22 01:42:47;;;;;;;27.95;15.63;;;;;;;-7.56;100.00;99451.34;10135656;28;20063;-78
2021/12/22 01:53:19;;;;;;;22.23;14.50;;;;;;;-7.77;100.00;99462.47;10145575;28;20052;-77
2021/12/22 01:58:32;;;;;;;28.85;15.90;;;;;;;-7.78;100.00;99458.22;10143840;28;20532;-76
2021/12/22 02:03:34;;;;;;;27.33;17.07;;;;;;;-7.62;100.00;99459.88;10153254;28;20055;-77
2021/12/22 02:08:36;;;;;;;28.52;16.40;;;;;;;-7.67;100.00;99460.41;10148370;28;20049;-77
2021/12/22 02:13:40;;;;;;;29.40;17.15;;;;;;;-7.58;100.00;99463.75;10163066;28;20067;-77
2021/12/22 02:18:49;;;;;;;25.63;16.65;;;;;;;-7.70;100.00;99462.53;10139084;28;20041;-77
2021/12/22 02:23:49;;;;;;;29.33;17.35;;;;;;;-7.73;100.00;99458.50;10152539;28;20048;-77
2021/12/22 02:29:06;;;;;;;27.77;17.00;;;;;;;-7.75;100.00;99456.06;10144731;28;20049;-77
2021/12/22 02:34:14;;;;;;;29.65;16.77;;;;;;;-7.71;100.00;99450.50;10153013;28;20048;-76
2021/12/22 02:39:15;;;;;;;31.40;20.20;;;;;;;-7.84;100.00;99458.94;10176862;28;20043;-76
2021/12/22 02:44:18;;;;;;;30.77;17.95;;;;;;;-7.74;100.00;99469.91;10173856;28;20063;-75
2021/12/22 02:49:19;;;;;;;27.95;18.35;;;;;;;-7.57;100.00;99471.41;10173086;28;20060;-77
2021/12/22 02:54:23;;;;;;;31.08;18.95;;;;;;;-7.50;100.00;99464.50;10196313;28;20293;-76
2021/12/22 03:04:50;;;;;;;35.28;18.55;;;;;;;-7.82;100.00;99469.97;10173248;28;20179;-76
2021/12/22 03:09:59;;;;;;;29.42;16.98;;;;;;;-7.74;100.00;99469.91;10142440;28;20048;-77
2021/12/22 03:15:03;;;;;;;28.38;17.00;;;;;;;-7.90;100.00;99476.06;10175528;28;20048;-76
2021/12/22 03:20:08;;;;;;;29.65;17.00;;;;;;;-8.05;100.00;99476.00;10177994;28;20051;-75
2021/12/22 03:25:17;;;;;;;26.77;15.75;;;;;;;-8.08;100.00;99470.31;10176132;28;20095;-78
2021/12/22 03:30:21;;;;;;;26.15;16.10;;;;;;;-8.12;100.00;99479.47;10165048;28;20063;-76
2021/12/22 03:35:23;;;;;;;26.02;16.30;;;;;;;-7.89;100.00;99480.28;10148278;28;20060;-77
2021/12/22 03:40:28;;;;;;;31.33;16.13;;;;;;;-7.99;100.00;99479.72;10150489;28;21072;-77
2021/12/22 03:45:28;;;;;;;25.10;16.73;;;;;;;-8.01;100.00;99468.66;10153271;28;20066;-76
2021/12/22 03:50:29;;;;;;;30.58;16.80;;;;;;;-7.91;100.00;99468.41;10170870;28;20056;-77
2021/12/22 03:55:29;;;;;;;26.42;16.50;;;;;;;-8.08;100.00;99467.72;10148162;28;20044;-77
2021/12/22 04:00:31;;;;;;;25.50;15.73;;;;;;;-8.31;100.00;99473.75;10158576;28;20071;-78
2021/12/22 04:05:31;;;;;;;26.77;16.23;;;;;;;-8.27;100.00;99474.19;10140890;28;20492;-78
2021/12/22 04:10:32;;;;;;;29.40;16.52;;;;;;;-8.23;100.00;99472.84;10163103;28;20123;-76
2021/12/22 04:15:34;;;;;;;27.45;16.52;;;;;;;-8.14;100.00;99477.03;10178846;28;20774;-76
2021/12/22 04:20:35;;;;;;;28.02;15.95;;;;;;;-8.13;100.00;99488.28;10191055;28;20040;-76
2021/12/22 04:25:36;;;;;;;26.88;16.65;;;;;;;-8.18;100.00;99486.19;10186273;28;20057;-81
2021/12/22 04:30:39;;;;;;;26.05;15.68;;;;;;;-8.27;100.00;99476.00;10200637;28;20044;-78
2021/12/22 04:35:41;;;;;;;28.90;17.67;;;;;;;-8.11;100.00;99475.91;10188125;28;20593;-77
2021/12/22 04:40:42;;;;;;;27.10;16.83;;;;;;;-8.15;100.00;99465.00;10161512;28;20064;-77
2021/12/22 04:45:44;;;;;;;32.78;18.10;;;;;;;-8.27;100.00;99470.78;10152939;28;20151;-77
2021/12/22 04:50:45;;;;;;;31.10;17.23;;;;;;;-8.14;100.00;99473.63;10152261;28;20188;-77
2021/12/22 04:55:46;;;;;;;27.73;17.30;;;;;;;-8.25;100.00;99472.22;10159001;28;20099;-77
2021/12/22 05:00:48;;;;;;;37.20;20.05;;;;;;;-8.21;100.00;99470.91;10138294;28;20064;-77
2021/12/22 05:05:49;;;;;;;33.15;19.17;;;;;;;-8.38;100.00;99474.63;10163217;28;20056;-77
2021/12/22 05:10:49;;;;;;;37.95;22.08;;;;;;;-8.28;100.00;99472.56;10158314;28;20139;-78
2021/12/22 05:15:51;;;;;;;46.55;22.63;;;;;;;-8.24;100.00;99463.44;10160919;28;20152;-78
2021/12/22 05:20:52;;;;;;;39.80;20.15;;;;;;;-8.33;100.00;99467.06;10168502;29;20067;-78
2021/12/22 05:25:56;;;;;;;31.02;18.05;;;;;;;-8.46;100.00;99475.47;10162785;29;20048;-77
2021/12/22 05:30:56;;;;;;;32.60;18.73;;;;;;;-8.44;100.00;99468.31;10156305;28;20043;-76
2021/12/22 05:35:57;;;;;;;31.15;17.17;;;;;;;-8.42;100.00;99473.34;10155802;28;20060;-77
2021/12/22 05:40:59;;;;;;;28.55;16.55;;;;;;;-8.43;100.00;99474.31;10164632;28;20071;-79
2021/12/22 05:46:00;;;;;;;29.13;16.42;;;;;;;-8.61;100.00;99480.59;10180319;28;20064;-78
2021/12/22 05:51:01;;;;;;;27.92;15.73;;;;;;;-8.67;100.00;99480.47;10147004;28;20063;-78
2021/12/22 05:56:02;;;;;;;28.90;16.77;;;;;;;-8.57;100.00;99482.88;10148692;28;20145;-78
2021/12/22 06:01:03;;;;;;;27.67;15.13;;;;;;;-8.64;100.00;99486.13;10173377;28;20039;-79
2021/12/22 06:06:05;;;;;;;26.70;15.38;;;;;;;-8.48;100.00;99487.84;10196173;28;20056;-78
2021/12/22 06:11:06;;;;;;;26.38;14.93;;;;;;;-8.52;100.00;99488.34;10166874;28;20456;-76
2021/12/22 06:16:07;;;;;;;27.35;15.20;;;;;;;-8.42;100.00;99471.53;10159854;28;20072;-78
2021/12/22 06:21:10;;;;;;;23.80;13.90;;;;;;;-8.48;100.00;99466.22;10159859;28;20061;-79
2021/12/22 06:26:10;;;;;;;28.13;15.77;;;;;;;-8.67;100.00;99462.25;10157685;28;20181;-76
2021/12/22 06:31:11;;;;;;;23.23;14.10;;;;;;;-8.78;100.00;99465.22;10166943;28;20466;-78
2021/12/22 06:36:12;;;;;;;25.70;13.35;;;;;;;-8.82;100.00;99466.53;10175277;28;20052;-76
2021/12/22 06:41:12;;;;;;;24.30;12.98;;;;;;;-8.82;100.00;99462.16;10177269;28;20056;-78
2021/12/22 06:46:13;;;;;;;21.08;12.70;;;;;;;-8.63;100.00;99474.75;10178775;28;20134;-78
2021/12/22 06:51:13;;;;;;;21.23;11.27;;;;;;;-8.74;100.00;99471.72;10189873;28;20056;-78
2021/12/22 06:56:15;;;;;;;22.65;12.45;;;;;;;-8.82;100.00;99471.75;10208140;28;20129;-80
2021/12/22 07:01:18;;;;;;;19.58;12.20;;;;;;;-8.77;100.00;99465.06;10182473;28;20484;-78
2021/12/22 07:06:20;;;;;;;20.73;12.40;;;;;;;-8.68;100.00;99478.84;10204721;28;20124;-81
2021/12/22 07:11:21;;;;;;;24.67;13.25;;;;;;;-8.69;100.00;99480.63;10196877;28;20048;-78
2021/12/22 07:16:21;;;;;;;24.27;13.70;;;;;;;-8.68;100.00;99482.25;10183755;28;20043;-77
2021/12/22 07:21:24;;;;;;;24.85;13.68;;;;;;;-8.70;100.00;99506.81;10206969;28;21121;-81
2021/12/22 07:26:25;;;;;;;21.92;13.23;;;;;;;-8.72;100.00;99517.38;10179265;28;20048;-77
2021/12/22 07:31:26;;;;;;;22.63;13.80;;;;;;;-8.52;100.00;99520.41;10149960;28;20139;-79
2021/12/22 07:36:26;;;;;;;24.75;12.93;;;;;;;-8.35;100.00;99515.94;10149948;28;20049;-79
2021/12/22 07:41:28;;;;;;;23.15;13.05;;;;;;;-8.25;100.00;99524.31;10158277;28;20515;-78
2021/12/22 07:46:28;;;;;;;26.00;14.07;;;;;;;-7.97;100.00;99535.03;10192314;28;20043;-78
2021/12/22 07:51:29;;;;;;;25.80;14.45;;;;;;;-7.75;100.00;99536.88;10186510;28;20052;-79
2021/12/22 07:56:31;;;;;;;25.95;13.73;;;;;;;-7.51;100.00;99535.03;10192277;28;20044;-81
2021/12/22 08:01:32;;;;;;;23.15;13.50;;;;;;;-7.37;100.00;99541.28;10174214;28;20052;-78
2021/12/22 08:06:34;;;;;;;22.10;13.63;;;;;;;-7.08;100.00;99527.50;10178472;28;20831;-79
2021/12/22 08:11:35;;;;;;;22.65;13.68;;;;;;;-6.98;100.00;99521.03;10183694;28;20054;-78
2021/12/22 08:16:35;;;;;;;25.80;12.65;;;;;;;-6.79;100.00;99514.44;10189487;28;20048;-77
2021/12/22 08:21:36;;;;;;;19.20;12.02;;;;;;;-6.77;100.00;99512.47;10212156;28;20036;-79
2021/12/22 08:26:37;;;;;;;23.80;13.15;;;;;;;-6.33;100.00;99524.66;10238988;28;20036;-81
2021/12/22 08:31:37;;;;;;;22.25;12.32;;;;;;;-6.17;100.00;99531.50;10223543;28;20044;-81
2021/12/22 08:41:59;;;;;;;19.58;11.68;;;;;;;-6.14;100.00;99526.69;10173783;28;20062;-80
2021/12/22 08:47:00;;;;;;;20.05;13.43;;;;;;;-5.85;100.00;99535.41;10197204;28;20046;-81
2021/12/22 08:52:01;;;;;;;22.35;13.30;;;;;;;-5.44;100.00;99531.19;10236618;28;20418;-79
2021/12/22 08:57:02;;;;;;;24.45;13.35;;;;;;;-5.43;100.00;99524.13;10178312;28;20074;-78
2021/12/22 09:02:04;;;;;;;23.35;13.68;;;;;;;-5.84;100.00;99521.38;10163856;28;20044;-77
2021/12/22 09:07:05;;;;;;;22.05;13.27;;;;;;;-5.49;100.00;99517.03;10169102;28;20056;-79
2021/12/22 09:12:07;;;;;;;23.38;11.75;;;;;;;-5.01;100.00;99515.41;10155996;28;20487;-79
2021/12/22 09:17:07;;;;;;;21.13;12.35;;;;;;;-5.05;100.00;99513.34;10146331;28;20062;-79
2021/12/22 09:22:08;;;;;;;20.92;11.85;;;;;;;-4.92;100.00;99508.22;10151429;28;20595;-77
2021/12/22 09:27:08;;;;;;;21.63;13.00;;;;;;;-4.57;100.00;99516.84;10189059;28;20056;-78
2021/12/22 09:32:14;;;;;;;21.77;12.35;;;;;;;-4.56;100.00;99507.19;10144662;28;20070;-77
2021/12/22 09:37:17;;;;;;;21.45;13.15;;;;;;;-4.42;100.00;99511.47;10179415;28;20075;-78
2021/12/22 09:42:18;;;;;;;23.52;13.95;;;;;;;-4.24;100.00;99508.31;10150175;28;20048;-78
2021/12/22 09:47:27;;;;;;;23.40;14.65;;;;;;;-4.02;100.00;99507.19;10171426;28;20603;-78
2021/12/22 09:52:29;;;;;;;23.80;14.35;;;;;;;-4.18;100.00;99497.06;10173010;28;20112;-79
2021/12/22 09:57:31;;;;;;;30.30;15.63;;;;;;;-3.68;100.00;99503.59;10150846;28;20488;-78
2021/12/22 10:02:33;;;;;;;24.92;15.30;;;;;;;-3.83;100.00;99490.69;10159650;28;20068;-78
2021/12/22 10:07:37;;;;;;;26.70;16.10;;;;;;;-3.90;100.00;99471.50;10183500;28;20048;-79
2021/12/22 10:12:39;;;;;;;22.20;12.75;;;;;;;-3.98;100.00;99463.81;10203067;28;20072;-78
2021/12/22 10:17:43;;;;;;;20.77;12.90;;;;;;;-3.49;100.00;99463.44;10190409;28;20059;-78
2021/12/22 10:22:49;;;;;;;19.58;11.68;;;;;;;-3.21;100.00;99449.28;10159869;28;20134;-78
2021/12/22 10:27:58;;;;;;;17.75;10.75;;;;;;;-3.18;100.00;99444.44;10167836;28;20064;-78
2021/12/22 10:33:16;;;;;;;19.15;11.93;;;;;;;-2.54;100.00;99436.75;10183991;28;20079;-82
2021/12/22 10:38:23;;;;;;;19.92;12.07;;;;;;;-2.36;100.00;99424.53;10196063;28;20068;-81
2021/12/22 10:43:26;;;;;;;20.30;10.75;;;;;;;-2.55;100.00;99424.63;10180237;28;20111;-78
2021/12/22 10:53:53;;;;;;;20.45;11.45;;;;;;;-2.36;100.00;99410.59;10152875;28;20075;-78
2021/12/22 10:59:11;;;;;;;20.42;11.38;;;;;;;-1.97;100.00;99414.78;10155365;28;20071;-79
2021/12/22 11:04:15;;;;;;;20.63;11.40;;;;;;;-1.93;100.00;99410.69;10167515;28;20540;-77
2021/12/22 11:09:17;;;;;;;18.40;11.15;;;;;;;-1.62;100.00;99401.94;10192181;28;20056;-77
2021/12/22 11:14:24;;;;;;;17.15;10.63;;;;;;;-1.23;100.00;99386.78;10174700;28;20060;-77
2021/12/22 11:19:34;;;;;;;16.10;10.15;;;;;;;-1.04;100.00;99369.16;10160470;28;20053;-77
2021/12/22 11:24:40;;;;;;;14.98;9.15;;;;;;;-0.91;100.00;99358.47;10167723;28;20087;-78
2021/12/22 11:29:44;;;;;;;14.73;9.15;;;;;;;-0.38;100.00;99350.63;10158628;28;20059;-78
2021/12/22 11:34:49;;;;;;;15.05;9.05;;;;;;;-0.53;100.00;99345.00;10158860;28;20052;-77
2021/12/22 11:39:51;;;;;;;14.60;8.85;;;;;;;-0.35;100.00;99350.22;10159610;28;20059;-78
2021/12/22 11:44:55;;;;;;;14.20;8.68;;;;;;;-0.06;100.00;99340.63;10151658;28;20064;-79
2021/12/22 11:50:01;;;;;;;14.25;9.40;;;;;;;0.05;100.00;99331.13;10178957;28;20579;-80
2021/12/22 11:55:20;;;;;;;12.27;7.78;;;;;;;-0.05;100.00;99331.69;10173097;29;20052;-77
2021/12/22 12:00:35;;;;;;;13.48;8.55;;;;;;;0.09;100.00;99327.00;10157173;28;20060;-77
2021/12/22 12:05:36;;;;;;;12.00;8.40;;;;;;;0.52;100.00;99313.41;10150409;28;20055;-72
2021/12/22 12:10:48;;;;;;;12.30;7.72;;;;;;;0.62;100.00;99306.75;10147032;28;20041;-69
2021/12/22 12:21:56;;;;;;;13.30;8.43;;;;;;;0.49;100.00;99295.41;10155764;28;20052;-73
2021/12/22 12:26:59;;;;;;;10.80;7.22;;;;;;;0.69;100.00;99302.16;10156227;28;20158;-70
2021/12/22 12:32:01;;;;;;;11.07;7.10;;;;;;;0.50;100.00;99298.84;10157885;28;20130;-71
2021/12/22 12:37:06;;;;;;;13.95;7.22;;;;;;;1.45;100.00;99287.72;10150779;28;20076;-79
2021/12/22 12:42:06;;;;;;;9.88;6.68;;;;;;;1.90;100.00;99271.78;10173613;28;20067;-78
2021/12/22 12:47:20;;;;;;;9.35;6.43;;;;;;;1.32;100.00;99275.59;10175259;29;20048;-79
2021/12/22 12:52:23;;;;;;;9.70;6.45;;;;;;;1.09;100.00;99273.84;10190288;28;20088;-78
2021/12/22 12:57:25;;;;;;;9.70;6.45;;;;;;;0.56;100.00;99261.75;10195967;28;20052;-79
2021/12/22 13:02:29;;;;;;;10.80;6.82;;;;;;;0.50;100.00;99251.31;10206375;28;20052;-77
2021/12/22 13:07:30;;;;;;;9.80;6.55;;;;;;;0.23;100.00;99251.81;10231000;28;20058;-79
2021/12/22 13:17:49;;;;;;;9.43;6.03;;;;;;;-0.12;100.00;99246.53;10175878;29;20456;-78
2021/12/22 13:22:52;;;;;;;10.30;6.88;;;;;;;-0.12;100.00;99243.09;10172163;28;20059;-78
2021/12/22 13:27:57;;;;;;;11.63;6.75;;;;;;;-0.08;100.00;99255.63;10181210;28;20127;-77
2021/12/22 13:33:05;;;;;;;9.43;5.60;;;;;;;-0.12;100.00;99258.94;10174864;28;20059;-76
2021/12/22 13:38:19;;;;;;;12.07;6.93;;;;;;;-0.30;100.00;99250.09;10175507;28;20055;-78
2021/12/22 13:43:26;;;;;;;11.40;6.68;;;;;;;-0.33;100.00;99249.75;10173780;28;20258;-78
2021/12/22 13:48:30;;;;;;;8.75;5.95;;;;;;;-0.33;100.00;99247.13;10164602;28;20155;-78
2021/12/22 13:53:32;;;;;;;9.23;6.57;;;;;;;-0.31;100.00;99251.13;10150555;28;20147;-81
2021/12/22 13:58:40;;;;;;;11.30;6.45;;;;;;;-0.34;100.00;99251.59;10172946;29;20062;-78
2021/12/22 14:03:42;;;;;;;9.43;6.03;;;;;;;-0.33;100.00;99255.81;10160536;28;20495;-80
2021/12/22 14:08:43;;;;;;;8.00;5.53;;;;;;;-0.32;100.00;99243.44;10165431;28;20159;-78
2021/12/22 14:13:46;;;;;;;8.98;5.80;;;;;;;-0.37;100.00;99246.75;10161084;28;20139;-77
2021/12/22 14:18:47;;;;;;;12.10;6.43;;;;;;;-0.35;100.00;99236.00;10157246;28;20056;-79
2021/12/22 14:24:01;;;;;;;10.20;6.18;;;;;;;-0.42;100.00;99230.81;10188537;28;20063;-78
2021/12/22 14:29:06;;;;;;;9.40;6.28;;;;;;;-0.49;100.00;99234.59;10206982;28;20066;-83
2021/12/22 14:34:08;;;;;;;10.90;6.28;;;;;;;-0.65;100.00;99233.41;10210508;28;20052;-83
2021/12/22 14:39:10;;;;;;;12.03;6.33;;;;;;;-0.71;100.00;99226.44;10223232;28;20044;-84
2021/12/22 14:44:22;;;;;;;9.68;6.55;;;;;;;-0.86;100.00;99219.72;10207578;28;20051;-82
2021/12/22 14:49:24;;;;;;;11.27;6.20;;;;;;;-0.98;100.00;99211.00;10211399;29;20180;-84
2021/12/22 14:54:27;;;;;;;10.07;6.20;;;;;;;-1.12;100.00;99220.09;10196638;28;20058;-82
2021/12/22 15:00:02;;;;;;;10.18;6.70;;;;;;;-1.30;100.00;99220.94;10166619;28;20468;-81
2021/12/22 15:05:04;;;;;;;10.17;6.23;;;;;;;-1.46;100.00;99211.84;10190185;28;20083;-83
2021/12/22 15:10:19;;;;;;;11.73;7.00;;;;;;;-1.57;100.00;99211.78;10193972;28;20372;-82
2021/12/22 15:15:21;;;;;;;10.90;6.20;;;;;;;-1.72;100.00;99212.16;10187754;28;20052;-82
2021/12/22 15:20:31;;;;;;;10.38;6.60;;;;;;;-1.86;100.00;99205.44;10178659;28;20105;-82
2021/12/22 15:25:33;;;;;;;11.43;6.93;;;;;;;-1.85;100.00;99196.50;10193531;29;20045;-82
2021/12/22 15:30:34;;;;;;;10.65;6.65;;;;;;;-1.99;100.00;99197.69;10164978;29;20057;-83
2021/12/22 15:35:39;;;;;;;12.00;7.00;;;;;;;-2.18;100.00;99202.94;10213225;28;20040;-82
2021/12/22 15:40:41;;;;;;;9.35;6.38;;;;;;;-2.30;100.00;99212.53;10212961;28;20102;-80
2021/12/22 15:45:43;;;;;;;11.70;6.90;;;;;;;-2.37;100.00;99215.25;10175266;28;20056;-80
2021/12/22 15:50:47;;;;;;;10.38;6.43;;;;;;;-2.50;100.00;99214.53;10165099;28;20417;-80
2021/12/22 15:55:47;;;;;;;10.45;6.38;;;;;;;-2.59;100.00;99191.16;10151164;28;20130;-78
2021/12/22 16:00:47;;;;;;;9.63;6.40;;;;;;;-2.52;100.00;99195.56;10179476;28;20053;-78
2021/12/22 16:05:48;;;;;;;10.27;6.75;;;;;;;-2.60;100.00;99189.53;10164093;29;20269;-79
2021/12/22 16:10:49;;;;;;;10.20;6.45;;;;;;;-2.49;100.00;99181.97;10160847;28;20051;-82
2021/12/22 16:15:50;;;;;;;8.68;6.25;;;;;;;-2.70;100.00;99183.97;10185033;28;20064;-78
2021/12/22 16:20:53;;;;;;;9.85;6.13;;;;;;;-2.82;100.00;99190.94;10163297;28;20048;-79
2021/12/22 16:25:54;;;;;;;11.88;8.02;;;;;;;-2.89;100.00;99200.69;10187921;28;20052;-78
2021/12/22 16:30:54;;;;;;;11.00;6.47;;;;;;;-2.87;100.00;99193.41;10163211;28;20048;-79
2021/12/22 16:35:55;;;;;;;9.98;6.28;;;;;;;-2.90;100.00;99197.25;10160260;28;20198;-78
2021/12/22 16:40:56;;;;;;;11.60;6.55;;;;;;;-2.93;100.00;99192.41;10167683;28;20131;-78
2021/12/22 16:45:56;;;;;;;9.70;6.35;;;;;;;-2.97;100.00;99183.38;10169761;28;20096;-79
2021/12/22 16:50:59;;;;;;;10.90;7.10;;;;;;;-3.07;100.00;99169.09;10170708;28;20044;-78
2021/12/22 16:56:01;;;;;;;13.37;8.47;;;;;;;-3.23;100.00;99179.09;10161421;28;20072;-78
2021/12/22 17:01:03;;;;;;;14.73;8.50;;;;;;;-3.27;100.00;99188.41;10157653;28;20052;-78
2021/12/22 17:06:04;;;;;;;13.27;8.15;;;;;;;-3.26;100.00;99178.72;10169692;28;20514;-77
2021/12/22 17:11:04;;;;;;;11.27;7.00;;;;;;;-3.34;100.00;99190.25;10165257;28;20060;-79
2021/12/22 17:16:06;;;;;;;11.73;7.35;;;;;;;-3.27;100.00;99183.16;10169795;28;20075;-81
2021/12/22 17:21:08;;;;;;;10.15;6.40;;;;;;;-3.35;100.00;99175.53;10177115;28;20055;-80
2021/12/22 17:26:08;;;;;;;12.25;7.85;;;;;;;-3.42;100.00;99172.13;10176030;28;20063;-79
2021/12/22 17:31:12;;;;;;;14.35;8.65;;;;;;;-3.47;100.00;99188.53;10207794;28;20080;-81
2021/12/22 17:36:15;;;;;;;11.20;7.05;;;;;;;-3.42;100.00;99193.13;10230708;28;20083;-84
2021/12/22 17:41:18;;;;;;;11.25;6.63;;;;;;;-3.51;100.00;99179.44;10220140;28;20047;-80
2021/12/22 17:46:27;;;;;;;11.13;6.60;;;;;;;-3.52;100.00;99166.53;10204120;28;20052;-80
2021/12/22 17:51:29;;;;;;;10.65;6.50;;;;;;;-3.69;100.00;99170.66;10191147;29;20088;-80
2021/12/22 17:56:30;;;;;;;11.82;7.63;;;;;;;-3.79;100.00;99165.84;10216903;28;20047;-79
2021/12/22 18:01:42;;;;;;;10.52;7.30;;;;;;;-3.81;100.00;99176.56;10245961;28;20100;-82
2021/12/22 18:07:15;;;;;;;14.90;7.90;;;;;;;-3.78;100.00;99186.63;10321440;23;20063;-81
2021/12/22 18:12:22;;;;;;;11.88;7.53;;;;;;;-3.74;100.00;99185.22;10220172;28;20051;-81
2021/12/22 18:18:01;;;;;;;13.15;7.15;;;;;;;-3.74;100.00;99189.66;10251783;28;20035;-84
2021/12/22 18:23:15;;;;;;;12.05;7.55;;;;;;;-3.81;100.00;99181.78;10303779;28;20069;-83
2021/12/22 18:28:20;;;;;;;12.45;7.80;;;;;;;-3.94;100.00;99168.72;10296198;28;20059;-83
2021/12/22 18:33:47;;;;;;;13.32;8.63;;;;;;;-4.09;100.00;99178.66;10286469;28;20070;-84
2021/12/22 18:38:56;;;;;;;15.18;9.23;;;;;;;-4.17;100.00;99168.41;10241191;28;20058;-78
2021/12/22 18:44:15;;;;;;;14.40;9.50;;;;;;;-4.20;100.00;99166.19;10273873;28;20051;-80
2021/12/22 18:49:22;;;;;;;12.57;8.30;;;;;;;-4.10;100.00;99169.19;10261155;28;20043;-80
2021/12/22 18:54:25;;;;;;;11.32;7.93;;;;;;;-4.13;100.00;99173.00;10264969;28;20090;-82
2021/12/22 18:59:36;;;;;;;11.95;7.55;;;;;;;-4.11;100.00;99164.97;10280136;28;20553;-82
2021/12/22 19:04:44;;;;;;;11.43;7.55;;;;;;;-4.11;100.00;99168.38;10287515;28;20047;-80
2021/12/22 19:10:12;;;;;;;13.60;7.38;;;;;;;-4.17;100.00;99150.06;10271980;28;20170;-83
2021/12/22 19:15:29;;;;;;;13.37;8.27;;;;;;;-4.22;100.00;99158.50;10260929;28;20053;-84
2021/12/22 19:21:15;;;;;;;11.70;8.13;;;;;;;-4.33;100.00;99156.53;10272985;28;20163;-82
2021/12/22 19:26:17;;;;;;;13.77;8.40;;;;;;;-4.33;100.00;99153.91;10249945;28;20055;-84
2021/12/22 19:31:23;;;;;;;13.07;8.40;;;;;;;-4.37;100.00;99148.28;10242135;28;20077;-81
2021/12/22 19:36:25;;;;;;;14.52;8.35;;;;;;;-4.30;100.00;99149.09;10245664;28;20137;-81
2021/12/22 19:41:39;;;;;;;11.13;7.32;;;;;;;-4.20;100.00;99142.59;10232511;28;20081;-80
2021/12/22 19:46:39;;;;;;;9.70;7.22;;;;;;;-4.30;100.00;99129.91;10262738;28;20066;-80
2021/12/22 19:51:43;;;;;;;15.97;10.83;;;;;;;-4.31;100.00;99125.69;10244895;28;20051;-79
2021/12/22 19:56:51;;;;;;;18.10;10.38;;;;;;;-4.39;100.00;99118.03;10265065;28;20051;-85
2021/12/22 20:01:54;;;;;;;18.80;10.20;;;;;;;-4.37;100.00;99108.19;10271393;28;20082;-81
2021/12/22 20:06:56;;;;;;;13.35;9.40;;;;;;;-4.40;100.00;99105.94;10274771;28;20051;-81
2021/12/22 20:12:19;;;;;;;16.80;10.43;;;;;;;-4.40;100.00;99092.84;10245554;28;20047;-81
2021/12/22 20:17:21;;;;;;;14.85;8.73;;;;;;;-4.44;100.00;99087.22;10252056;28;20057;-81
2021/12/22 20:22:27;;;;;;;13.95;9.13;;;;;;;-4.35;100.00;99082.56;10262035;28;20047;-82
2021/12/22 20:27:30;;;;;;;15.20;9.23;;;;;;;-4.41;100.00;99080.75;10267557;28;20063;-83
2021/12/22 20:32:37;;;;;;;14.65;9.38;;;;;;;-4.47;100.00;99074.56;10280209;28;20051;-80
2021/12/22 20:37:52;;;;;;;16.50;9.48;;;;;;;-4.53;100.00;99075.38;10249095;28;20054;-80
2021/12/22 20:42:54;;;;;;;15.57;9.25;;;;;;;-4.58;100.00;99080.41;10242917;28;20059;-79
2021/12/22 20:47:55;;;;;;;14.35;8.85;;;;;;;-4.58;100.00;99067.31;10263020;28;20062;-81
2021/12/22 20:52:57;;;;;;;14.98;9.52;;;;;;;-4.65;100.00;99050.81;10243312;28;20407;-80
2021/12/22 20:57:58;;;;;;;18.35;10.45;;;;;;;-4.64;100.00;99044.56;10270974;28;20629;-83
2021/12/22 21:03:00;;;;;;;20.17;11.30;;;;;;;-4.65;100.00;99038.53;10249168;28;20137;-84
2021/12/22 21:08:02;;;;;;;17.37;10.57;;;;;;;-4.67;100.00;99035.28;10274196;28;20057;-80
2021/12/22 21:13:05;;;;;;;17.17;10.60;;;;;;;-4.74;100.00;99018.81;10235119;28;20656;-81
2021/12/22 21:18:19;;;;;;;17.27;10.80;;;;;;;-4.80;100.00;99016.22;10293831;28;20050;-82
2021/12/22 21:23:25;;;;;;;18.25;11.02;;;;;;;-4.90;100.00;99020.06;10287107;28;20062;-81
2021/12/22 21:28:30;;;;;;;17.17;10.35;;;;;;;-4.94;100.00;99018.03;10284034;28;20043;-79
2021/12/22 21:33:33;;;;;;;18.10;11.20;;;;;;;-5.01;100.00;99007.59;10294048;28;20047;-81
2021/12/22 21:38:35;;;;;;;18.42;11.23;;;;;;;-4.98;100.00;99014.22;10291964;28;20051;-81
2021/12/22 21:43:36;;;;;;;18.55;10.52;;;;;;;-5.16;100.00;99001.78;10291890;28;20055;-83
2021/12/22 21:48:38;;;;;;;19.67;10.77;;;;;;;-5.28;100.00;99000.78;10293932;28;20043;-81
2021/12/22 21:53:39;;;;;;;21.92;12.40;;;;;;;-5.38;100.00;99003.00;10248466;28;20055;-79
2021/12/22 21:58:39;;;;;;;18.35;12.32;;;;;;;-5.47;100.00;99012.88;10261424;28;20047;-79
2021/12/22 22:03:40;;;;;;;17.40;11.73;;;;;;;-5.54;100.00;99009.44;10252663;28;20043;-79
2021/12/22 22:08:43;;;;;;;19.40;12.68;;;;;;;-5.54;100.00;99012.06;10243609;28;20047;-78
2021/12/22 22:13:45;;;;;;;19.08;11.88;;;;;;;-5.56;100.00;99012.28;10238077;28;20058;-79
2021/12/22 22:18:45;;;;;;;19.38;12.07;;;;;;;-5.70;100.00;99002.78;10229898;28;20093;-80
2021/12/22 22:23:46;;;;;;;22.50;12.30;;;;;;;-5.74;100.00;98996.38;10240426;28;20062;-80
2021/12/22 22:28:47;;;;;;;23.58;12.10;;;;;;;-5.75;100.00;98997.38;10255973;28;20499;-79
2021/12/22 22:33:48;;;;;;;21.35;11.60;;;;;;;-5.75;100.00;98977.25;10226756;28;20058;-79
2021/12/22 22:38:50;;;;;;;19.83;10.53;;;;;;;-5.83;100.00;98974.03;10258613;28;20055;-79
2021/12/22 22:43:51;;;;;;;15.57;9.90;;;;;;;-5.90;100.00;98968.81;10247210;28;20043;-79
2021/12/22 22:48:52;;;;;;;17.42;9.82;;;;;;;-5.90;100.00;98957.56;10241932;28;20055;-78
2021/12/22 22:53:52;;;;;;;17.45;10.63;;;;;;;-5.96;100.00;98958.38;10241967;28;20613;-79
2021/12/22 22:58:53;;;;;;;16.85;10.15;;;;;;;-6.01;100.00;98964.19;10277236;28;20135;-79
2021/12/22 23:03:53;;;;;;;17.10;9.88;;;;;;;-5.98;100.00;98968.22;10241488;28;20055;-79
2021/12/22 23:08:54;;;;;;;18.27;10.63;;;;;;;-5.91;100.00;98962.00;10239607;28;20154;-79
2021/12/22 23:13:56;;;;;;;17.55;10.98;;;;;;;-5.96;100.00;98959.16;10222544;28;20067;-79
2021/12/22 23:18:56;;;;;;;20.25;10.27;;;;;;;-5.87;100.00;98946.69;10222767;28;20062;-79
2021/12/22 23:23:57;;;;;;;18.92;10.52;;;;;;;-5.94;100.00;98938.06;10243310;28;20427;-80
2021/12/22 23:28:58;;;;;;;19.60;11.20;;;;;;;-5.90;100.00;98944.50;10237448;28;20458;-78